Time;durP1;ratioP1;P1;durP2;ratioP2;P2;SDS_P1;SDS_P2;PMS_P1;PMS_P2;Temp;Humidity;BMP_temperature;BMP_pressure;BME280_temperature;BME280_humidity;BME280_pressure;Samples;Min_cycle;Max_cycle;Signal;HPM_P1;HPM_P2
2022/04/21 00:00:13;;;;;;;8.57;2.97;;;;;;;15.83;31.76;100464.69;4961248;28;20415;-61
2022/04/21 00:02:41;;;;;;;5.18;2.63;;;;;;;15.60;32.01;100456.13;4976671;28;20514;-61
2022/04/21 00:05:09;;;;;;;5.38;2.58;;;;;;;15.57;32.27;100450.47;4939221;28;20059;-61
2022/04/21 00:07:37;;;;;;;5.47;2.90;;;;;;;15.59;32.07;100460.06;4958279;28;20071;-62
2022/04/21 00:10:05;;;;;;;7.28;2.38;;;;;;;15.75;31.82;100454.56;4945592;28;20058;-62
2022/04/21 00:12:34;;;;;;;5.82;2.50;;;;;;;15.71;31.86;100453.66;4977588;28;20050;-66
2022/04/21 00:15:03;;;;;;;9.95;2.58;;;;;;;15.60;32.01;100450.56;4977341;28;20061;-61
2022/04/21 00:17:30;;;;;;;5.38;2.83;;;;;;;15.61;31.75;100452.19;4978693;28;20050;-61
2022/04/21 00:19:59;;;;;;;5.22;2.60;;;;;;;15.64;31.18;100447.88;4963175;28;20062;-61
2022/04/21 00:25:12;;;;;;;12.85;3.60;;;;;;;15.33;33.06;100440.25;4977782;28;20055;-61
2022/04/21 00:27:41;;;;;;;6.82;3.55;;;;;;;15.15;33.31;100440.88;4977387;28;20074;-67
2022/04/21 00:30:10;;;;;;;11.23;3.90;;;;;;;14.92;33.73;100437.00;4964114;28;20053;-66
2022/04/21 00:32:39;;;;;;;10.63;3.65;;;;;;;14.87;34.44;100440.78;4975397;28;20092;-66
2022/04/21 00:35:08;;;;;;;10.57;3.92;;;;;;;14.82;34.78;100443.81;4960814;28;20058;-67
2022/04/21 00:37:53;;;;;;;8.18;4.63;;;;;;;14.75;34.56;100440.03;4980064;28;21473;-62
2022/04/21 00:40:23;;;;;;;12.57;3.90;;;;;;;15.04;34.39;100429.47;4983774;28;20054;-63
2022/04/21 00:42:50;;;;;;;9.10;3.92;;;;;;;14.86;34.75;100422.53;4931441;28;20063;-62
2022/04/21 00:45:17;;;;;;;9.35;3.55;;;;;;;15.10;34.59;100421.72;4973723;28;20077;-66
2022/04/21 00:47:46;;;;;;;8.80;3.70;;;;;;;15.01;34.92;100418.25;4960128;28;20074;-62
2022/04/21 00:50:17;;;;;;;8.27;3.63;;;;;;;15.17;34.53;100421.88;4943711;28;20053;-62
2022/04/21 00:52:46;;;;;;;7.63;3.45;;;;;;;15.07;34.60;100428.75;4970075;28;20046;-67
2022/04/21 00:55:14;;;;;;;9.93;3.08;;;;;;;14.99;34.87;100432.47;4971555;28;20529;-66
2022/04/21 00:57:43;;;;;;;11.52;3.33;;;;;;;14.87;35.31;100421.38;4979286;28;20054;-67
2022/04/21 01:00:11;;;;;;;8.18;3.90;;;;;;;14.89;35.36;100421.84;4977178;28;20046;-61
2022/04/21 01:02:51;;;;;;;7.75;3.20;;;;;;;14.92;34.68;100412.84;4972159;28;20047;-61
2022/04/21 01:05:32;;;;;;;9.88;3.53;;;;;;;15.13;34.59;100415.44;4974327;28;20085;-66
2022/04/21 01:08:04;;;;;;;10.90;3.50;;;;;;;15.05;34.79;100410.81;4972186;28;20055;-66
2022/04/21 01:10:34;;;;;;;5.80;3.25;;;;;;;15.02;34.70;100409.59;4963325;28;20062;-65
2022/04/21 01:13:06;;;;;;;7.40;3.55;;;;;;;14.65;35.07;100408.84;4979457;28;20135;-65
2022/04/21 01:15:34;;;;;;;9.15;3.33;;;;;;;14.47;35.36;100412.19;4975003;28;20438;-61
2022/04/21 01:18:03;;;;;;;10.70;3.08;;;;;;;14.81;35.52;100402.56;4973791;28;20604;-60
2022/04/21 01:20:31;;;;;;;7.90;3.00;;;;;;;14.98;35.25;100403.09;4960669;28;20047;-65
2022/04/21 01:22:58;;;;;;;6.65;3.35;;;;;;;14.80;35.37;100396.22;4977057;28;20536;-65
2022/04/21 01:25:25;;;;;;;11.95;3.47;;;;;;;14.64;35.19;100400.88;4961591;28;20055;-67
2022/04/21 01:27:57;;;;;;;6.93;2.90;;;;;;;14.44;35.44;100404.56;4974509;28;20050;-61
2022/04/21 01:30:25;;;;;;;6.97;3.28;;;;;;;14.22;35.66;100407.75;4951403;28;20050;-62
2022/04/21 01:32:53;;;;;;;12.13;3.35;;;;;;;14.30;35.26;100412.41;4967930;28;20054;-62
2022/04/21 01:35:20;;;;;;;7.90;3.13;;;;;;;14.06;35.25;100404.84;4975981;28;20050;-62
2022/04/21 01:43:19;;;;;;;11.82;3.53;;;;;;;14.03;35.96;100400.00;4975834;28;20054;-67
2022/04/21 01:45:46;;;;;;;5.32;3.08;;;;;;;14.10;35.80;100396.66;4978303;28;20055;-62
2022/04/21 01:48:14;;;;;;;10.00;3.50;;;;;;;14.31;35.81;100397.41;4981168;28;20525;-61
2022/04/21 01:50:41;;;;;;;8.43;3.53;;;;;;;14.38;35.56;100392.09;4963014;28;20059;-67
2022/04/21 01:53:08;;;;;;;7.88;3.28;;;;;;;14.36;35.30;100389.69;4963364;28;20467;-66
2022/04/21 01:55:35;;;;;;;7.88;3.50;;;;;;;14.40;35.58;100382.28;4980023;28;20042;-61
2022/04/21 01:58:03;;;;;;;6.68;3.00;;;;;;;14.10;35.53;100385.59;4974912;28;20054;-68
2022/04/21 02:00:30;;;;;;;10.38;3.58;;;;;;;13.82;35.76;100387.38;4961508;28;20480;-65
2022/04/21 02:02:57;;;;;;;10.70;3.40;;;;;;;13.88;36.28;100386.03;4974205;28;20058;-65
2022/04/21 02:05:25;;;;;;;8.98;3.30;;;;;;;13.67;36.52;100383.31;4966010;28;20071;-66
2022/04/21 02:07:54;;;;;;;7.20;3.35;;;;;;;13.88;35.78;100380.50;4956212;28;20630;-62
2022/04/21 02:10:22;;;;;;;10.17;3.73;;;;;;;13.98;35.65;100377.28;4952340;28;20050;-65
2022/04/21 02:12:50;;;;;;;6.45;3.40;;;;;;;14.03;35.91;100374.28;4977605;28;20298;-61
2022/04/21 02:15:17;;;;;;;10.15;3.80;;;;;;;14.04;35.73;100379.47;4994573;28;20054;-65
2022/04/21 02:17:45;;;;;;;9.57;4.07;;;;;;;14.17;36.29;100375.56;4978936;28;20065;-65
2022/04/21 02:20:16;;;;;;;10.48;3.80;;;;;;;14.07;35.83;100375.22;4961362;28;20081;-63
2022/04/21 02:22:44;;;;;;;11.75;4.03;;;;;;;14.05;36.05;100369.19;4963044;28;20065;-65
2022/04/21 02:25:13;;;;;;;7.43;3.80;;;;;;;14.18;35.55;100368.84;4982176;28;20045;-65
2022/04/21 02:27:45;;;;;;;12.43;3.97;;;;;;;13.78;36.28;100367.88;4948088;28;20059;-62
2022/04/21 02:30:15;;;;;;;9.48;4.05;;;;;;;13.83;36.47;100366.84;4963473;28;20309;-61
2022/04/21 02:32:42;;;;;;;9.20;3.88;;;;;;;13.60;36.54;100360.13;4985834;28;20054;-66
2022/04/21 02:35:10;;;;;;;7.82;3.78;;;;;;;13.65;36.26;100354.38;4981427;28;20054;-66
2022/04/21 02:37:43;;;;;;;7.55;3.58;;;;;;;13.40;37.03;100359.84;4963929;28;20053;-62
2022/04/21 02:40:12;;;;;;;7.93;3.78;;;;;;;13.73;36.52;100357.03;4983912;28;20051;-66
2022/04/21 02:42:39;;;;;;;10.63;3.50;;;;;;;13.47;36.74;100354.56;4985152;28;20051;-61
2022/04/21 02:45:08;;;;;;;7.78;3.70;;;;;;;13.56;36.90;100352.47;4988003;28;20062;-60
2022/04/21 02:47:37;;;;;;;9.68;3.85;;;;;;;13.60;36.94;100349.06;4984106;28;20047;-62
2022/04/21 02:50:06;;;;;;;13.05;3.65;;;;;;;13.29;37.08;100355.06;4956262;28;20047;-66
2022/04/21 02:52:37;;;;;;;5.45;3.30;;;;;;;13.41;36.86;100347.63;4946598;28;20046;-61
2022/04/21 02:57:51;;;;;;;11.00;3.83;;;;;;;13.42;36.70;100342.91;4966297;28;20053;-65
2022/04/21 03:00:19;;;;;;;7.00;3.78;;;;;;;13.59;36.69;100351.00;4967545;28;20051;-67
2022/04/21 03:02:46;;;;;;;8.27;3.75;;;;;;;12.96;37.76;100355.00;4978479;28;20055;-61
2022/04/21 03:05:14;;;;;;;11.07;3.63;;;;;;;13.09;37.51;100344.84;4963663;28;20057;-66
2022/04/21 03:07:41;;;;;;;9.05;3.83;;;;;;;13.15;37.33;100351.78;4979718;28;20046;-65
2022/04/21 03:10:09;;;;;;;10.77;3.70;;;;;;;13.14;37.15;100350.97;4982260;28;20050;-62
2022/04/21 03:12:36;;;;;;;10.27;3.50;;;;;;;13.13;37.22;100348.53;4969610;28;20063;-67
2022/04/21 03:15:04;;;;;;;7.43;3.97;;;;;;;12.93;37.55;100350.16;4980626;28;20061;-62
2022/04/21 03:17:32;;;;;;;8.38;3.40;;;;;;;13.24;37.29;100341.44;4967639;28;20050;-66
2022/04/21 03:19:59;;;;;;;9.93;4.07;;;;;;;13.17;36.98;100338.41;4978258;28;20058;-66
2022/04/21 03:25:15;;;;;;;7.68;3.80;;;;;;;12.98;37.22;100324.25;4976748;28;20051;-65
2022/04/21 03:27:44;;;;;;;9.27;3.45;;;;;;;12.97;37.13;100322.66;4965670;28;20418;-65
2022/04/21 03:30:11;;;;;;;9.00;3.67;;;;;;;12.88;37.28;100328.25;4976983;28;20070;-61
2022/04/21 03:32:39;;;;;;;9.20;4.20;;;;;;;12.74;37.55;100327.72;4980985;28;20057;-61
2022/04/21 03:35:07;;;;;;;6.97;3.42;;;;;;;12.82;37.60;100331.53;4977666;28;20063;-63
2022/04/21 03:37:34;;;;;;;8.50;3.72;;;;;;;12.93;37.46;100327.22;4986095;28;20078;-67
2022/04/21 03:40:01;;;;;;;10.07;3.95;;;;;;;12.94;37.31;100323.28;4963671;28;20055;-61
2022/04/21 03:42:31;;;;;;;11.95;3.70;;;;;;;12.79;37.35;100316.44;4934643;28;20059;-62
2022/04/21 03:45:01;;;;;;;12.27;3.70;;;;;;;12.89;37.49;100323.50;4959884;28;20506;-66
2022/04/21 03:47:29;;;;;;;10.48;3.95;;;;;;;12.43;38.17;100332.78;4980692;28;20080;-71
2022/04/21 03:49:56;;;;;;;8.00;3.65;;;;;;;12.77;37.77;100326.22;4977491;28;20054;-64
2022/04/21 03:52:24;;;;;;;10.10;3.78;;;;;;;12.97;37.13;100328.16;4977022;28;20062;-61
2022/04/21 03:54:51;;;;;;;11.90;4.00;;;;;;;12.70;37.58;100325.94;4975447;28;20054;-62
2022/04/21 03:57:19;;;;;;;7.78;3.92;;;;;;;12.73;37.65;100328.84;4958745;28;20069;-67
2022/04/21 03:59:46;;;;;;;7.70;4.35;;;;;;;12.47;38.21;100322.69;4977143;28;20059;-62
2022/04/21 04:02:13;;;;;;;8.35;4.03;;;;;;;12.52;38.15;100330.00;4944923;28;20042;-66
2022/04/21 04:04:41;;;;;;;10.50;4.10;;;;;;;12.62;37.78;100326.81;4986731;28;20046;-61
2022/04/21 04:12:41;;;;;;;13.50;3.90;;;;;;;12.81;37.26;100332.69;4981061;28;20059;-62
2022/04/21 04:15:12;;;;;;;8.32;3.97;;;;;;;12.76;37.65;100328.16;4961420;28;20106;-62
2022/04/21 04:17:39;;;;;;;9.45;4.10;;;;;;;12.73;37.65;100328.84;4974734;28;20055;-63
2022/04/21 04:20:07;;;;;;;9.15;4.13;;;;;;;12.48;37.60;100334.56;4969273;28;20058;-67
2022/04/21 04:22:35;;;;;;;8.23;4.03;;;;;;;12.25;38.10;100329.34;4979363;28;20054;-65
2022/04/21 04:25:03;;;;;;;9.07;4.15;;;;;;;12.31;38.21;100330.75;4984375;28;20557;-61
2022/04/21 04:27:30;;;;;;;10.85;3.97;;;;;;;12.30;38.09;100322.81;4974636;28;20050;-66
2022/04/21 04:29:58;;;;;;;9.10;4.32;;;;;;;12.25;38.22;100331.28;4949045;28;20051;-61
2022/04/21 04:32:25;;;;;;;8.70;4.63;;;;;;;12.38;37.94;100331.03;4979693;28;20057;-67
2022/04/21 04:34:52;;;;;;;9.25;4.72;;;;;;;12.42;37.91;100334.75;4965289;28;20097;-67
2022/04/21 04:37:20;;;;;;;7.90;4.47;;;;;;;12.52;37.28;100338.28;4976861;28;20065;-66
2022/04/21 04:39:47;;;;;;;9.70;4.53;;;;;;;12.42;37.51;100343.03;4978382;28;20042;-66
2022/04/21 04:42:17;;;;;;;8.63;4.70;;;;;;;12.43;37.61;100335.53;4976358;28;20059;-66
2022/04/21 04:44:45;;;;;;;13.13;4.90;;;;;;;12.41;37.45;100346.94;4977281;28;20489;-66
2022/04/21 04:47:12;;;;;;;8.10;4.07;;;;;;;12.33;37.62;100352.50;4956253;28;20058;-66
2022/04/21 04:49:41;;;;;;;8.07;4.45;;;;;;;12.24;37.68;100352.56;4952622;28;20055;-61
2022/04/21 04:52:08;;;;;;;11.50;4.85;;;;;;;12.11;37.94;100352.81;4932955;29;20066;-65
2022/04/21 04:54:35;;;;;;;12.98;4.80;;;;;;;12.01;38.17;100353.97;4955588;29;20058;-62
2022/04/21 04:57:03;;;;;;;14.90;5.00;;;;;;;12.11;37.92;100352.81;4955011;28;20047;-61
2022/04/21 04:59:30;;;;;;;12.93;4.88;;;;;;;12.17;37.88;100359.75;4946671;29;20060;-62
2022/04/21 05:01:59;;;;;;;12.32;4.65;;;;;;;12.09;38.14;100355.09;4951201;28;20527;-67
2022/04/21 05:04:26;;;;;;;13.75;4.80;;;;;;;11.99;38.38;100353.53;4956671;29;20047;-66
2022/04/21 05:06:55;;;;;;;10.82;4.43;;;;;;;11.84;38.52;100356.81;4955453;28;20043;-67
2022/04/21 05:09:23;;;;;;;9.50;4.95;;;;;;;11.98;38.42;100362.91;4951741;28;20062;-66
2022/04/21 05:11:58;;;;;;;9.45;4.68;;;;;;;12.08;38.04;100356.25;4935696;28;20043;-61
2022/04/21 05:14:25;;;;;;;9.30;4.65;;;;;;;12.22;37.88;100363.13;4951185;28;20047;-61
2022/04/21 05:16:53;;;;;;;11.55;5.13;;;;;;;12.35;37.85;100362.09;4944887;28;20054;-62
2022/04/21 05:19:21;;;;;;;9.75;5.03;;;;;;;12.31;38.19;100355.63;4952271;28;20059;-61
2022/04/21 05:21:49;;;;;;;13.93;5.10;;;;;;;12.44;38.06;100360.09;4931719;29;20906;-61
2022/04/21 05:24:17;;;;;;;11.73;5.32;;;;;;;12.49;37.76;100361.84;4945799;28;20047;-61
2022/04/21 05:26:46;;;;;;;9.27;4.50;;;;;;;12.45;37.90;100358.13;4938198;28;20062;-62
2022/04/21 05:32:01;;;;;;;13.73;5.55;;;;;;;12.67;37.98;100354.25;4935066;29;20043;-67
2022/04/21 05:34:30;;;;;;;11.18;5.00;;;;;;;12.20;38.39;100359.09;4952735;28;20073;-67
2022/04/21 05:36:58;;;;;;;11.50;5.40;;;;;;;12.17;38.69;100354.22;4952874;28;20106;-65
2022/04/21 05:39:27;;;;;;;8.13;4.50;;;;;;;12.00;39.04;100346.03;4948536;29;20415;-66
2022/04/21 05:41:58;;;;;;;14.27;5.10;;;;;;;12.32;38.80;100348.16;4952462;28;20055;-66
2022/04/21 05:44:29;;;;;;;11.30;5.18;;;;;;;12.27;38.93;100345.56;4950902;28;20061;-66
2022/04/21 05:46:57;;;;;;;11.75;5.55;;;;;;;12.25;39.04;100350.63;4964975;28;20042;-66
2022/04/21 05:49:25;;;;;;;10.30;5.40;;;;;;;12.23;39.14;100350.13;4968065;28;20069;-66
2022/04/21 05:51:52;;;;;;;10.52;5.53;;;;;;;11.91;39.64;100345.25;4969385;28;20669;-66
2022/04/21 05:54:20;;;;;;;11.50;5.32;;;;;;;12.00;39.68;100349.59;4942452;29;20051;-61
2022/04/21 05:56:48;;;;;;;17.65;5.20;;;;;;;11.99;39.98;100341.66;4973388;28;20047;-62
2022/04/21 05:59:15;;;;;;;14.00;5.82;;;;;;;12.19;39.61;100341.72;4980681;28;20065;-61
2022/04/21 06:01:43;;;;;;;7.97;4.70;;;;;;;12.12;39.52;100344.19;4960418;28;20050;-62
2022/04/21 06:04:10;;;;;;;13.77;5.45;;;;;;;12.28;39.42;100339.72;4964145;28;20360;-62
2022/04/21 06:06:39;;;;;;;13.55;5.55;;;;;;;12.28;39.14;100345.25;4974916;28;20797;-63
2022/04/21 06:09:06;;;;;;;10.07;5.50;;;;;;;12.33;39.25;100341.47;4978601;28;20043;-61
2022/04/21 06:11:35;;;;;;;16.13;5.93;;;;;;;12.29;39.15;100335.81;4959995;28;20061;-61
2022/04/21 06:14:02;;;;;;;11.63;5.65;;;;;;;12.32;39.24;100346.19;4963980;28;20050;-62
2022/04/21 06:16:29;;;;;;;10.63;6.07;;;;;;;12.46;39.09;100334.91;4973571;28;20546;-62
2022/04/21 06:18:57;;;;;;;12.95;6.53;;;;;;;12.50;39.18;100332.28;4987344;28;20061;-62
2022/04/21 06:21:24;;;;;;;12.57;5.47;;;;;;;12.30;38.81;100342.16;4978966;28;20047;-62
2022/04/21 06:23:51;;;;;;;17.40;5.70;;;;;;;11.99;40.01;100336.97;4972538;28;20162;-60
2022/04/21 06:26:19;;;;;;;16.98;5.75;;;;;;;12.22;39.69;100338.28;4956713;28;20055;-63
2022/04/21 06:28:47;;;;;;;16.67;5.90;;;;;;;12.33;39.51;100344.22;4969831;28;20497;-62
2022/04/21 06:31:14;;;;;;;13.82;5.53;;;;;;;12.33;39.48;100335.94;4956186;28;20042;-62
2022/04/21 06:33:42;;;;;;;16.75;5.82;;;;;;;12.27;39.56;100342.81;4968794;28;20059;-62
2022/04/21 06:36:09;;;;;;;12.30;5.25;;;;;;;12.31;39.34;100341.00;4951416;28;20050;-62
2022/04/21 06:38:36;;;;;;;9.48;5.28;;;;;;;12.27;39.54;100337.28;4964965;28;20047;-64
2022/04/21 06:41:04;;;;;;;15.63;5.85;;;;;;;12.34;39.67;100338.38;4973751;28;20058;-63
2022/04/21 06:49:03;;;;;;;9.85;5.95;;;;;;;12.10;40.45;100331.88;4970267;28;20043;-64
2022/04/21 06:51:30;;;;;;;13.98;5.55;;;;;;;12.19;40.29;100327.91;4954396;28;20432;-62
2022/04/21 06:53:58;;;;;;;14.30;5.38;;;;;;;12.26;40.25;100336.47;4969918;28;20054;-63
2022/04/21 06:56:25;;;;;;;14.52;5.97;;;;;;;12.24;40.33;100333.22;4965796;28;20438;-61
2022/04/21 06:58:55;;;;;;;13.75;6.07;;;;;;;12.23;40.39;100333.56;4975292;28;20095;-62
2022/04/21 07:01:23;;;;;;;12.27;6.47;;;;;;;12.07;40.89;100332.50;4967431;28;20072;-62
2022/04/21 07:03:50;;;;;;;13.77;5.30;;;;;;;12.43;43.26;100330.03;4954998;28;20039;-62
2022/04/21 07:06:18;;;;;;;17.92;5.50;;;;;;;12.85;41.94;100333.63;4961094;28;20058;-60
2022/04/21 07:08:46;;;;;;;11.13;5.30;;;;;;;12.93;42.18;100336.34;4975359;28;21130;-60
2022/04/21 07:11:15;;;;;;;13.98;5.07;;;;;;;13.15;42.53;100326.88;4974845;28;20047;-61
2022/04/21 07:13:42;;;;;;;15.93;8.50;;;;;;;13.31;42.02;100320.38;4972510;28;20051;-61
2022/04/21 07:16:09;;;;;;;12.02;6.35;;;;;;;13.43;41.56;100319.59;4975163;28;20415;-60
2022/04/21 07:18:37;;;;;;;12.82;5.90;;;;;;;13.48;40.70;100313.84;4959885;28;20050;-61
2022/04/21 07:21:07;;;;;;;9.70;5.40;;;;;;;13.70;39.95;100318.16;4959314;28;20051;-60
2022/04/21 07:23:35;;;;;;;;;;;;;;;13.68;40.20;100312.16;4957343;28;20055;-61
2022/04/21 07:26:02;;;;;;;15.02;5.82;;;;;;;12.94;40.16;100315.81;4977135;28;19933;-63
2022/04/21 07:28:29;;;;;;;13.68;5.65;;;;;;;13.30;40.27;100306.91;4975503;28;20054;-62
2022/04/21 07:30:57;;;;;;;14.60;5.57;;;;;;;13.42;40.56;100304.16;4976961;28;20043;-67
2022/04/21 07:33:24;;;;;;;11.95;5.63;;;;;;;13.23;40.10;100307.44;4975637;28;20051;-67
2022/04/21 07:35:52;;;;;;;13.73;6.45;;;;;;;13.23;40.02;100306.66;4944358;28;20055;-67
2022/04/21 07:38:21;;;;;;;12.10;6.00;;;;;;;12.77;40.59;100310.44;4964278;28;20055;-66
2022/04/21 07:40:52;;;;;;;14.13;6.13;;;;;;;12.65;40.69;100304.03;4976819;28;20053;-66
2022/04/21 07:43:21;;;;;;;12.13;6.22;;;;;;;12.73;40.75;100301.19;4973272;28;20043;-67
2022/04/21 07:45:52;;;;;;;11.70;5.78;;;;;;;12.89;40.42;100302.22;4955012;28;20383;-68
2022/04/21 07:48:19;;;;;;;12.32;5.90;;;;;;;12.74;40.59;100310.31;4956260;28;20051;-63
2022/04/21 07:50:46;;;;;;;13.30;6.20;;;;;;;12.70;41.05;100312.94;4957540;28;20055;-62
2022/04/21 07:53:21;;;;;;;12.85;5.88;;;;;;;12.98;40.63;100307.66;4937490;29;20133;-68
2022/04/21 07:55:53;;;;;;;18.00;6.30;;;;;;;13.02;40.31;100312.19;4958087;29;20059;-68
2022/04/21 07:58:21;;;;;;;9.27;6.10;;;;;;;13.41;39.88;100308.06;4956152;29;20059;-63
2022/04/21 08:00:49;;;;;;;14.68;6.68;;;;;;;13.35;39.90;100299.16;4939617;29;20055;-62
2022/04/21 08:03:19;;;;;;;14.13;5.93;;;;;;;13.40;39.94;100301.75;4938926;28;20051;-64
2022/04/21 08:05:47;;;;;;;14.52;6.38;;;;;;;13.29;39.95;100316.31;4938184;29;20051;-67
2022/04/21 08:08:15;;;;;;;11.90;6.45;;;;;;;13.24;39.84;100299.94;4935827;29;20059;-67
2022/04/21 08:10:42;;;;;;;13.63;6.18;;;;;;;13.21;40.37;100300.63;4957323;28;20058;-62
2022/04/21 08:13:16;;;;;;;13.80;6.72;;;;;;;13.62;39.73;100305.22;4957684;29;20043;-67
2022/04/21 08:15:47;;;;;;;11.38;6.22;;;;;;;13.43;39.58;100301.06;4957467;28;20055;-64
2022/04/21 08:18:14;;;;;;;13.75;6.63;;;;;;;13.16;40.36;100314.69;4955248;29;20066;-67
2022/04/21 08:20:46;;;;;;;18.00;6.90;;;;;;;13.36;39.99;100298.03;4956705;28;20059;-67
2022/04/21 08:23:14;;;;;;;15.80;6.83;;;;;;;13.33;40.23;100304.25;4957090;28;20055;-63
2022/04/21 08:34:28;;;;;;;16.50;6.60;;;;;;;13.54;39.49;100309.72;4953964;29;20058;-63
2022/04/21 08:36:56;;;;;;;14.73;6.57;;;;;;;13.51;39.74;100311.19;4950394;28;20078;-62
2022/04/21 08:39:23;;;;;;;12.85;6.95;;;;;;;13.61;39.78;100301.66;4956043;28;20074;-68
2022/04/21 08:41:56;;;;;;;12.60;6.68;;;;;;;13.92;39.22;100298.34;4956860;28;20517;-68
2022/04/21 08:44:24;;;;;;;20.23;7.28;;;;;;;13.98;39.18;100297.75;4945032;29;20063;-68
2022/04/21 08:46:52;;;;;;;11.40;6.35;;;;;;;14.08;38.86;100294.53;4953106;28;20042;-67
2022/04/21 08:49:21;;;;;;;12.75;6.40;;;;;;;13.90;38.75;100298.69;4967967;28;20514;-68
2022/04/21 08:51:49;;;;;;;13.57;5.93;;;;;;;13.84;39.13;100304.81;4959775;28;20050;-67
2022/04/21 08:54:17;;;;;;;10.35;5.95;;;;;;;13.88;39.48;100297.44;4973926;28;20126;-68
2022/04/21 08:56:49;;;;;;;14.77;6.88;;;;;;;14.06;39.24;100312.66;4975868;28;20047;-62
2022/04/21 08:59:16;;;;;;;11.30;6.80;;;;;;;13.90;39.40;100298.69;4954369;28;20051;-68
2022/04/21 09:01:44;;;;;;;13.70;6.38;;;;;;;14.04;39.60;100307.47;4975955;28;20051;-61
2022/04/21 09:04:11;;;;;;;14.18;6.47;;;;;;;14.32;38.82;100294.53;4967993;28;20058;-67
2022/04/21 09:06:39;;;;;;;10.48;6.18;;;;;;;14.24;38.53;100308.50;4966682;28;20058;-63
2022/04/21 09:09:17;;;;;;;14.23;6.93;;;;;;;14.14;37.87;100297.91;4950921;28;20050;-66
2022/04/21 09:11:45;;;;;;;12.70;6.63;;;;;;;14.23;38.43;100298.56;4953927;28;20057;-62
2022/04/21 09:14:17;;;;;;;14.32;6.90;;;;;;;14.10;38.57;100308.84;4970588;28;20051;-67
2022/04/21 09:16:45;;;;;;;13.63;6.30;;;;;;;14.18;38.27;100293.25;4972151;28;20038;-62
2022/04/21 09:19:14;;;;;;;17.27;6.93;;;;;;;14.36;38.22;100306.56;4970806;28;20053;-68
2022/04/21 09:21:41;;;;;;;10.55;6.32;;;;;;;14.40;38.19;100292.81;4972023;28;20050;-69
2022/04/21 09:24:27;;;;;;;10.93;6.22;;;;;;;14.46;38.48;100285.84;4972854;28;20034;-62
2022/04/21 09:26:56;;;;;;;11.13;6.35;;;;;;;14.44;38.52;100280.66;4947644;28;20081;-67
2022/04/21 09:29:30;;;;;;;13.82;6.78;;;;;;;14.51;38.17;100289.19;4943310;28;20061;-68
2022/04/21 09:31:59;;;;;;;16.00;7.20;;;;;;;14.53;38.21;100289.66;4973169;28;20054;-67
2022/04/21 09:34:35;;;;;;;12.80;6.28;;;;;;;14.70;38.24;100283.03;4973888;28;20065;-68
2022/04/21 09:37:10;;;;;;;17.10;6.78;;;;;;;14.78;38.57;100275.72;4973415;28;20051;-62
2022/04/21 09:39:40;;;;;;;14.95;6.50;;;;;;;14.83;36.79;100276.28;4974631;28;20055;-69
2022/04/21 09:42:08;;;;;;;10.63;6.22;;;;;;;14.92;37.18;100279.72;4972868;28;20062;-67
2022/04/21 09:47:30;;;;;;;12.05;6.90;;;;;;;15.16;36.70;100271.28;4973373;28;20067;-67
2022/04/21 09:50:10;;;;;;;10.90;6.57;;;;;;;15.26;36.16;100265.22;4974276;28;20055;-67
2022/04/21 09:52:53;;;;;;;9.98;6.35;;;;;;;15.11;35.67;100279.88;4960717;28;20055;-62
2022/04/21 09:55:25;;;;;;;12.10;6.07;;;;;;;15.00;36.10;100262.13;4958125;28;20732;-62
2022/04/21 09:58:14;;;;;;;15.13;6.63;;;;;;;15.13;35.59;100271.97;4967514;28;20055;-62
2022/04/21 10:00:42;;;;;;;12.15;5.95;;;;;;;15.16;35.95;100262.97;4965725;28;20062;-63
2022/04/21 10:03:10;;;;;;;11.35;5.90;;;;;;;15.26;35.37;100261.63;4957098;28;20043;-68
2022/04/21 10:05:41;;;;;;;9.88;6.05;;;;;;;15.43;36.09;100258.56;4973819;28;20130;-67
2022/04/21 10:08:10;;;;;;;15.27;6.13;;;;;;;15.50;35.94;100248.44;4956341;28;20059;-62
2022/04/21 10:10:46;;;;;;;13.88;6.43;;;;;;;15.62;35.88;100242.78;4956124;28;20127;-64
2022/04/21 10:13:13;;;;;;;12.98;6.38;;;;;;;15.79;35.75;100238.84;4956285;28;20054;-63
2022/04/21 10:15:42;;;;;;;12.52;6.28;;;;;;;16.06;35.38;100237.91;4955178;28;20193;-62
2022/04/21 10:18:12;;;;;;;12.55;6.43;;;;;;;16.09;34.92;100244.72;4957143;28;20606;-67
2022/04/21 10:20:40;;;;;;;12.63;6.72;;;;;;;16.04;34.48;100233.91;4968915;28;20506;-65
2022/04/21 10:23:17;;;;;;;12.02;6.85;;;;;;;16.02;34.47;100233.44;4974780;28;20046;-63
2022/04/21 10:25:44;;;;;;;11.75;6.68;;;;;;;16.11;34.41;100220.97;4968043;28;20191;-63
2022/04/21 10:28:34;;;;;;;14.13;7.25;;;;;;;16.19;34.15;100219.97;4970744;28;20042;-65
2022/04/21 10:31:32;;;;;;;11.55;5.63;;;;;;;16.27;34.69;100215.34;4972284;28;20054;-75
2022/04/21 10:34:06;;;;;;;14.88;5.93;;;;;;;16.61;33.68;100212.59;4937876;28;20414;-63
2022/04/21 10:36:47;;;;;;;12.85;6.03;;;;;;;16.58;33.19;100212.50;4971982;28;20042;-63
2022/04/21 10:39:17;;;;;;;12.40;5.95;;;;;;;16.59;32.93;100212.16;4943066;28;20046;-67
2022/04/21 10:41:47;;;;;;;;;;;;;;;16.53;32.67;100204.44;4974095;28;20058;-66
2022/04/21 10:44:26;;;;;;;12.18;6.15;;;;;;;16.73;33.12;100212.44;4973076;28;19926;-61
2022/04/21 10:47:25;;;;;;;12.73;6.43;;;;;;;16.55;31.74;100205.69;4960153;28;20063;-60
2022/04/21 10:49:54;;;;;;;12.90;5.63;;;;;;;16.52;32.01;100200.88;4943937;28;20420;-61
2022/04/21 10:57:55;;;;;;;11.13;6.57;;;;;;;16.68;31.87;100204.38;4967218;28;20078;-66
2022/04/21 11:00:27;;;;;;;11.02;6.65;;;;;;;16.75;31.63;100201.72;4976071;28;20506;-66
2022/04/21 11:03:09;;;;;;;8.77;6.28;;;;;;;16.68;32.06;100196.03;4977242;28;20059;-65
2022/04/21 11:05:40;;;;;;;17.05;6.97;;;;;;;16.88;32.03;100196.03;4977232;28;20046;-66
2022/04/21 11:08:12;;;;;;;10.25;6.38;;;;;;;17.13;31.82;100197.28;4965491;28;20433;-66
2022/04/21 11:10:43;;;;;;;12.68;6.03;;;;;;;17.25;31.45;100184.00;4974625;28;20054;-62
2022/04/21 11:13:12;;;;;;;16.35;5.60;;;;;;;17.36;31.34;100186.97;4961261;28;20047;-61
2022/04/21 11:15:49;;;;;;;7.83;5.53;;;;;;;17.31;31.42;100182.50;4960483;28;20410;-66
2022/04/21 11:18:17;;;;;;;12.52;6.57;;;;;;;17.45;31.62;100177.19;4978359;28;20050;-62
2022/04/21 11:20:49;;;;;;;18.27;7.72;;;;;;;17.58;31.51;100170.28;4959982;28;20572;-60
2022/04/21 11:23:29;;;;;;;15.15;6.15;;;;;;;17.78;31.20;100166.22;4976612;28;20059;-61
2022/04/21 11:26:04;;;;;;;9.93;5.57;;;;;;;17.66;30.43;100162.84;4977611;28;20506;-66
2022/04/21 11:28:32;;;;;;;17.05;6.45;;;;;;;17.43;30.21;100156.47;4941486;29;20085;-62
2022/04/21 11:31:01;;;;;;;8.55;6.03;;;;;;;17.36;30.10;100157.16;4966792;28;20058;-66
2022/04/21 11:33:31;;;;;;;13.15;6.65;;;;;;;17.35;30.39;100155.53;4964751;28;20606;-66
2022/04/21 11:36:10;;;;;;;9.30;5.85;;;;;;;17.37;30.51;100149.59;4958932;28;20422;-64
2022/04/21 11:38:44;;;;;;;10.82;5.93;;;;;;;17.61;30.35;100152.00;4961096;28;20070;-66
2022/04/21 11:41:14;;;;;;;9.93;5.95;;;;;;;17.64;29.82;100148.50;4975795;28;20042;-66
2022/04/21 11:43:47;;;;;;;8.25;5.43;;;;;;;17.72;29.13;100145.44;4959667;28;20380;-65
2022/04/21 11:46:15;;;;;;;11.32;6.57;;;;;;;17.85;28.93;100146.81;4977116;28;20066;-68
2022/04/21 11:48:43;;;;;;;8.60;5.97;;;;;;;17.99;27.86;100149.81;4976645;28;20051;-65
2022/04/21 11:51:12;;;;;;;9.65;5.78;;;;;;;17.98;28.25;100142.63;4972796;28;20467;-64
2022/04/21 11:53:41;;;;;;;10.20;5.95;;;;;;;18.25;28.23;100137.84;4974056;28;20054;-64
2022/04/21 11:56:10;;;;;;;10.13;6.38;;;;;;;17.93;27.73;100142.16;4974552;28;20070;-63
2022/04/21 11:58:39;;;;;;;8.45;5.82;;;;;;;17.63;27.83;100138.50;4958220;28;20062;-65
2022/04/21 12:06:44;;;;;;;9.32;5.20;;;;;;;17.86;27.82;100131.72;4975497;28;20051;-65
2022/04/21 12:09:16;;;;;;;8.65;5.95;;;;;;;17.75;27.98;100127.97;4967734;28;20055;-65
2022/04/21 12:11:48;;;;;;;17.58;8.98;;;;;;;17.87;27.90;100124.16;4975076;28;20057;-65
2022/04/21 12:14:16;;;;;;;11.85;5.35;;;;;;;17.92;28.76;100121.06;4975236;28;20057;-65
2022/04/21 12:16:47;;;;;;;8.77;5.30;;;;;;;18.08;28.04;100127.22;4953926;28;20062;-65
2022/04/21 12:19:16;;;;;;;11.73;5.47;;;;;;;18.01;29.01;100124.34;4936792;28;20063;-62
2022/04/21 12:21:45;;;;;;;14.82;5.72;;;;;;;18.16;28.98;100117.78;4952240;28;20054;-67